Flight Track Log - Related Links

Times and Time Zones

All times are in EDT time to prevent confusion due to time zone crossing. See the JBU41 flight status page for this flight to view local times or setup timezone preferences in your user account.


Time Position Orientation Groundspeed Altitude Reporting Facility
EDT Latitude Longitude Course Direction KTS MPH feet Rate Location/Type
Sat 11:04:33 AM 40.6167 -73.7667 223° Southwest 150 173 2,300  Level New York TRACON
Sat 11:05:33 AM 40.5667 -73.7333 153° Southeast 217 250 3,700 1,977 Climbing New York TRACON
Sat 11:07:00 AM 40.2520 -73.4041 123° Southeast  Level FlightAware Approximate
Sat 11:07:29 AM 40.4503 -73.6131 142° Southeast 278 320 8,100  Level New York Center
Sat 11:08:00 AM 40.1533 -73.3121 146° Southeast  Level FlightAware Approximate
Sat 11:08:27 AM 40.3767 -73.5608 152° Southeast 293 337 10,800  Level New York Center
Sat 11:09:00 AM 40.0561 -73.2827 223° Southwest  Level FlightAware Approximate
Sat 11:09:27 AM 40.2844 -73.5844 191° South 313 360 12,600  Level New York Center
Sat 11:10:27 AM 40.1836 -73.6181 194° South 363 418 15,200 2,138 Climbing New York Center
Sat 11:12:21 AM 39.9814 -73.6692 191° South 392 451 18,800 2,034 Climbing Washington Center
Sat 11:13:21 AM 39.8694 -73.6964 191° South 400 460 21,100 1,881 Climbing Washington Center
Sat 11:14:19 AM 39.7681 -73.7558 204° Southwest 405 466 22,500 1,678 Climbing Washington Center
Sat 11:15:19 AM 39.6692 -73.8286 210° Southwest 404 465 24,400 1,587 Climbing Washington Center
Sat 11:16:20 AM 39.5683 -73.9036 210° Southwest 409 471 25,700 1,339 Climbing Washington Center
Sat 11:17:20 AM 39.4650 -73.9814 210° Southwest 419 482 27,100 1,240 Climbing Washington Center
Sat 11:18:21 AM 39.3642 -74.0694 214° Southwest 430 495 28,200 1,041 Climbing Washington Center
Sat 11:19:21 AM 39.2839 -74.1597 221° Southwest 435 501 29,200 966 Climbing Washington Center
Sat 11:20:19 AM 39.1872 -74.2608 219° Southwest 440 506 30,100 1,068 Climbing Washington Center
Sat 11:21:19 AM 39.0925 -74.3642 220° Southwest 451 519 31,300 1,289 Climbing Washington Center
Sat 11:22:20 AM 38.9997 -74.4697 221° Southwest 451 519 32,700 1,279 Climbing Washington Center
Sat 11:23:21 AM 38.9089 -74.5644 219° Southwest 446 513 33,900 1,109 Climbing Washington Center
Sat 11:24:19 AM 38.8117 -74.6672 219° Southwest 451 519 34,900 1,008 Climbing Washington Center
Sat 11:25:20 AM 38.7186 -74.7669 220° Southwest 451 519 35,900 492 Climbing Washington Center
Sat 11:26:21 AM 38.6256 -74.8689 221° Southwest 451 519 35,900  Level Washington Center
Sat 11:27:21 AM 38.5322 -74.9681 220° Southwest 451 519 35,900  Level Washington Center
Sat 11:28:19 AM 38.4389 -75.0617 218° Southwest 446 513 35,900  Level Washington Center
Sat 11:29:20 AM 38.3392 -75.1522 215° Southwest 446 513 35,900  Level Washington Center
Sat 11:30:21 AM 38.2247 -75.2375 210° Southwest 440 506 35,900  Level Washington Center
Sat 11:31:19 AM 38.1164 -75.3172 210° Southwest 440 506 35,900  Level Washington Center
Sat 11:32:20 AM 38.0103 -75.3967 211° Southwest 445 512 35,900  Level Washington Center
Sat 11:33:19 AM 37.9042 -75.4708 209° Southwest 445 512 35,900  Level Washington Center
Sat 11:34:20 AM 37.7978 -75.5497 210° Southwest 440 506 35,900  Level Washington Center
Sat 11:35:21 AM 37.6872 -75.6233 208° Southwest 440 506 35,900  Level Washington Center
Sat 11:36:21 AM 37.5828 -75.7019 211° Southwest 440 506 35,900  Level Washington Center
Sat 11:37:21 AM 37.4744 -75.7775 209° Southwest 440 506 35,900  Level Washington Center
Sat 11:38:19 AM 37.3678 -75.8506 209° Southwest 440 506 35,900  Level Washington Center
Sat 11:39:20 AM 37.2675 -75.9206 209° Southwest 440 506 35,900  Level Washington Center
Sat 11:40:20 AM 37.1631 -75.9958 210° Southwest 446 513 35,900  Level Washington Center
Sat 11:41:20 AM 37.0564 -76.0708 209° Southwest 436 502 35,900 50 Level Washington Center
Sat 11:42:21 AM 36.9433 -76.1428 207° Southwest 447 514 36,000 50 Climbing Washington Center
Sat 11:43:19 AM 36.8367 -76.2147 208° Southwest 447 514 36,000  Level Washington Center
Sat 11:44:19 AM 36.7297 -76.2892 209° Southwest 447 514 36,000 -50 Level Washington Center
Sat 11:45:20 AM 36.6250 -76.3658 210° Southwest 447 514 35,900 -49 Descending Washington Center
Sat 11:46:21 AM 36.5181 -76.4372 208° Southwest 436 502 35,900  Level Washington Center
Sat 11:47:19 AM 36.4092 -76.5108 209° Southwest 441 507 35,900  Level Washington Center
Sat 11:48:19 AM 36.3022 -76.5842 209° Southwest 441 507 35,900  Level Washington Center
Sat 11:49:20 AM 36.1931 -76.6575 208° Southwest 441 507 35,900  Level Washington Center
Sat 11:50:20 AM 36.0839 -76.7306 208° Southwest 441 507 35,900  Level Washington Center
Sat 11:51:20 AM 35.9747 -76.8033 208° Southwest 441 507 35,900  Level Washington Center
Sat 11:52:21 AM 35.8694 -76.8761 209° Southwest 441 507 35,900  Level Washington Center
Sat 11:53:20 AM 35.7603 -76.9461 207° Southwest 441 507 35,900  Level Washington Center
Sat 11:54:21 AM 35.6531 -77.0211 210° Southwest 441 507 35,900 50 Level Washington Center
Sat 11:55:19 AM 35.5372 -77.1006 209° Southwest 432 497 36,000 51 Climbing Washington Center
Sat 11:56:19 AM 35.4278 -77.1700 207° Southwest 442 509 36,000  Level Washington Center
Sat 11:57:20 AM 35.3183 -77.2442 209° Southwest 442 509 36,000  Level Washington Center
Sat 11:58:21 AM 35.2069 -77.3156 208° Southwest 442 509 36,000  Level Washington Center
Sat 11:59:19 AM 35.1014 -77.3869 209° Southwest 442 509 36,000  Level Washington Center
Sat 12:00:19 PM 34.9919 -77.4581 208° Southwest 442 509 36,000  Level Washington Center
Sat 12:01:19 PM 34.8822 -77.5289 208° Southwest 442 509 36,000 -50 Level Washington Center
Sat 12:02:20 PM 34.7747 -77.5997 208° Southwest 442 509 35,900 -49 Descending Washington Center
Sat 12:03:21 PM 34.6669 -77.6728 209° Southwest 442 509 35,900  Level Washington Center
Sat 12:04:19 PM 34.5594 -77.7431 208° Southwest 442 509 35,900  Level Washington Center
Sat 12:06:03 PM 34.3642 -77.8644 207° Southwest 453 521 35,900  Level Jacksonville Center
Sat 12:07:03 PM 34.2428 -77.9067 196° South 453 521 35,900 50 Level Jacksonville Center
Sat 12:08:03 PM 34.1272 -77.9383 193° South 472 543 36,000 50 Climbing Jacksonville Center
Sat 12:09:03 PM 34.0033 -77.9728 193° South 472 543 36,000  Level Jacksonville Center
Sat 12:10:03 PM 33.8817 -78.0122 195° South 465 535 36,000  Level Jacksonville Center
Sat 12:11:03 PM 33.7581 -78.0467 193° South 460 529 36,000 -50 Level Jacksonville Center
Sat 12:12:03 PM 33.6197 -78.0867 194° South 465 535 35,900 -50 Descending Jacksonville Center
Sat 12:13:03 PM 33.4958 -78.1233 194° South 465 535 35,900  Level Jacksonville Center
Sat 12:14:03 PM 33.3742 -78.1572 193° South 465 535 35,900  Level Jacksonville Center
Sat 12:15:03 PM 33.2500 -78.1911 193° South 465 535 35,900  Level Jacksonville Center
Sat 12:16:03 PM 33.1283 -78.2272 194° South 465 535 35,900  Level Jacksonville Center
Sat 12:17:03 PM 33.0022 -78.2608 193° South 465 535 35,900  Level Jacksonville Center
Sat 12:18:03 PM 32.8764 -78.2972 194° South 465 535 35,900  Level Jacksonville Center
Sat 12:19:03 PM 32.7503 -78.3308 193° South 465 535 35,900  Level Jacksonville Center
Sat 12:20:03 PM 32.6261 -78.3642 193° South 465 535 35,900  Level Jacksonville Center
Sat 12:21:03 PM 32.5000 -78.4000 193° South 465 535 35,900  Level Jacksonville Center
Sat 12:22:03 PM 32.3719 -78.4358 193° South 470 541 35,900  Level Jacksonville Center
Sat 12:23:03 PM 32.2586 -78.4733 196° South 470 541 35,900  Level Jacksonville Center
Sat 12:24:03 PM 32.1344 -78.5086 194° South 470 541 35,900  Level Jacksonville Center
Sat 12:25:03 PM 32.0064 -78.5467 194° South 470 541 35,900  Level Jacksonville Center
Sat 12:26:03 PM 31.8803 -78.5844 194° South 470 541 35,900  Level Jacksonville Center
Sat 12:27:03 PM 31.7522 -78.6222 194° South 470 541 35,900  Level Jacksonville Center
Sat 12:28:03 PM 31.6156 -78.6578 192° South 470 541 35,900  Level Jacksonville Center
Sat 12:29:03 PM 31.4894 -78.6950 194° South 471 542 35,900  Level Jacksonville Center
Sat 12:30:03 PM 31.3633 -78.7322 194° South 471 542 35,900  Level Jacksonville Center
Sat 12:31:03 PM 31.2372 -78.7672 193° South 471 542 35,900  Level Jacksonville Center
Sat 12:32:03 PM 31.1089 -78.8042 194° South 471 542 35,900  Level Jacksonville Center
Sat 12:33:03 PM 30.9828 -78.8389 193° South 478 550 35,900  Level Jacksonville Center
Sat 12:34:03 PM 30.8544 -78.8758 194° South 478 550 35,900  Level Jacksonville Center
Sat 12:35:03 PM 30.7261 -78.9103 193° South 472 543 35,900  Level Jacksonville Center
Sat 12:36:03 PM 30.6061 -78.9442 194° South 466 536 35,900  Level Jacksonville Center
Sat 12:36:21 PM 30.5797 -78.9511 193° South 464 534 35,900  Level Miami Center
Sat 12:37:21 PM 30.4542 -78.9897 195° South 464 534 35,900  Level Miami Center
Sat 12:38:21 PM 30.3283 -79.0350 197° South 470 541 35,900  Level Miami Center
Sat 12:39:21 PM 30.2067 -79.0903 201° Southwest 476 548 35,900  Level Miami Center
Sat 12:40:21 PM 30.0847 -79.1428 200° South 476 548 35,900 50 Level Miami Center
Sat 12:41:21 PM 29.9567 -79.2072 204° Southwest 471 542 36,000 50 Climbing Miami Center
Sat 12:42:21 PM 29.8350 -79.2572 200° South 471 542 36,000  Level Miami Center
Sat 12:43:21 PM 29.7172 -79.3119 202° Southwest 471 542 36,000 -150 Level Miami Center
Sat 12:44:21 PM 29.5953 -79.3592 199° South 466 536 35,700 -1,100 Descending Miami Center
Sat 12:45:21 PM 29.4778 -79.4089 200° South 466 536 33,800 -1,950 Descending Miami Center
Sat 12:46:21 PM 29.3600 -79.4633 202° Southwest 466 536 31,800 -1,950 Descending Miami Center
Sat 12:47:21 PM 29.2419 -79.5225 204° Southwest 466 536 29,900 -1,950 Descending Miami Center
Sat 12:48:21 PM 29.1403 -79.6103 217° Southwest 460 529 27,900 -2,100 Descending Miami Center
Sat 12:49:21 PM 29.0631 -79.7222 232° Southwest 441 507 25,700 -2,300 Descending Miami Center
Sat 12:50:21 PM 29.0042 -79.8464 242° Southwest 449 517 23,300 -2,350 Descending Miami Center
Sat 12:51:21 PM 28.9678 -79.9856 253° West 443 510 21,000 -2,300 Descending Miami Center
Sat 12:52:21 PM 28.9275 -80.1075 249° West 435 501 18,700 -2,250 Descending Miami Center
Sat 12:53:21 PM 28.8911 -80.2297 251° West 422 486 16,500 -1,808 Descending Miami Center
Sat 12:54:57 PM 28.8333 -80.4167 251° West 397 457 14,000 -1,000 Descending Orlando TRACON
Sat 12:55:57 PM 28.8167 -80.5500 262° West 393 452 13,900 -550 Descending Orlando TRACON
Sat 12:56:57 PM 28.7833 -80.6667 252° West 392 451 12,900 -1,250 Descending Orlando TRACON
Sat 12:57:57 PM 28.7833 -80.7833 270° West 383 441 11,400 -1,400 Descending Orlando TRACON
Sat 12:58:57 PM 28.7500 -80.9000 252° West 373 429 10,100 -700 Descending Orlando TRACON
Sat 12:59:57 PM 28.7500 -81.0000 270° West 277 319 10,000 -400 Descending Orlando TRACON
Sat 01:00:57 PM 28.7333 -81.0667 254° West 220 253 9,300 -1,096 Descending Orlando TRACON
Sat 01:01:52 PM 28.7333 -81.1333 270° West 221 254 7,900 -1,670 Descending Orlando TRACON
Sat 01:02:52 PM 28.7167 -81.2000 254° West 215 247 6,100 -1,476 Descending Orlando TRACON
Sat 01:03:58 PM 28.6833 -81.2667 240° Southwest 206 237 4,800 -1,190 Descending Orlando TRACON
Sat 01:04:58 PM 28.6333 -81.3000 210° Southwest 205 236 3,600 -900 Descending Orlando TRACON
Sat 01:05:58 PM 28.5833 -81.3167 196° South 203 234 3,000 -550 Descending Orlando TRACON
Sat 01:06:58 PM 28.5333 -81.3333 196° South 180 207 2,500 -750 Descending Orlando TRACON
Sat 01:07:58 PM 28.4833 -81.3333 180° South 181 208 1,500 -1,000 Descending Orlando TRACON

Login

Don't have an account? Register now (free) for customized features, flight alerts, and more!